• Join FlightAware (Why Join?)
  • Login
  • US Flag 
03:34PM EDT


 

Airport Tracker/Info


-or-


 

Live Flight TrackerFlight Track Log ✈ EJA100 ✈ 10-May-2013 ✈ KBFI - KFLG

Flight Track Log - Related Links

Times and Time Zones

All times are in EDT time to prevent confusion due to time zone crossing. See the EJA100 flight status page for this flight to view local times or setup timezone preferences in your user account.

Time Position Orientation Groundspeed Altitude Reporting Facility
EDT Latitude Longitude Course Direction KTS MPH feet Rate Location/Type
02:00PM 47.5172 -122.2914 157° South 164 189 1,300  Level Seattle Center
02:01PM 47.4642 -122.2583 157° South 237 273 3,100 1,200 Climbing Seattle Center
02:02PM 47.4061 -122.2053 148° Southeast 222 255 3,800 1,980 Climbing Seattle Center
02:03PM 47.3331 -122.1381 148° Southeast 275 316 7,700 3,900 Climbing Seattle Center
02:04PM 47.2553 -122.1203 171° South 280 322 12,500 3,540 Climbing Seattle Center
02:05PM 47.1692 -122.1017 172° South 317 365 15,000 2,160 Climbing Seattle Center
02:06PM 47.0650 -122.0797 172° South 379 436 17,000 1,680 Climbing Seattle Center
02:07PM 46.9678 -122.0178 156° South 417 480 18,500 2,160 Climbing Seattle Center
02:08PM 46.8728 -121.9169 144° Southeast 428 493 21,500 2,700 Climbing Seattle Center
02:09PM 46.7708 -121.8119 145° Southeast 450 518 24,000 2,400 Climbing Seattle Center
02:10PM 46.6647 -121.7008 144° Southeast 474 545 26,400 2,100 Climbing Seattle Center
02:11PM 46.5419 -121.5742 145° Southeast 492 566 28,300 1,920 Climbing Seattle Center
02:12PM 46.4250 -121.4536 145° Southeast 512 589 30,400 2,520 Climbing Seattle Center
02:13PM 46.3061 -121.3333 145° Southeast 521 600 33,500 2,880 Climbing Seattle Center
02:14PM 46.1936 -121.2178 145° Southeast 505 581 36,300 2,580 Climbing Seattle Center
02:15PM 46.0814 -121.1072 146° Southeast 490 564 38,800 1,980 Climbing Seattle Center
02:16PM 45.9692 -120.9931 145° Southeast 494 568 40,400 1,080 Climbing Seattle Center
02:17PM 45.8331 -120.8586 145° Southeast 497 572 41,000 240 Climbing Seattle Center
02:18PM 45.7208 -120.7486 146° Southeast 492 566 41,000  Level Seattle Center
02:19PM 45.6083 -120.6353 145° Southeast 494 568 41,000  Level Seattle Center
02:20PM 45.4961 -120.5242 145° Southeast 492 566 41,000  Level Seattle Center
02:21PM 45.3806 -120.4128 146° Southeast 499 574 41,000  Level Seattle Center
02:22PM 45.2669 -120.3042 146° Southeast 496 571 41,000  Level Seattle Center
02:24PM 45.1539 -120.1939 145° Southeast 495 570 41,000  Level Seattle Center
02:25PM 45.0419 -120.0869 146° Southeast 492 566 41,000  Level Seattle Center
02:26PM 44.9083 -119.9569 145° Southeast 493 567 41,000  Level Seattle Center
02:27PM 44.8003 -119.8558 146° Southeast 496 571 41,000  Level Seattle Center
02:28PM 44.6869 -119.7472 146° Southeast 497 572 41,000  Level Seattle Center
02:29PM 44.5722 -119.6403 146° Southeast 497 572 41,000  Level Seattle Center
02:30PM 44.4575 -119.5336 146° Southeast 496 571 41,000  Level Seattle Center
02:31PM 44.3428 -119.4272 146° Southeast 497 572 41,000  Level Seattle Center
02:32PM 44.2283 -119.3217 147° Southeast 494 568 41,000  Level Seattle Center
02:33PM 44.1125 -119.2158 147° Southeast 498 573 41,000  Level Seattle Center
02:34PM 43.9736 -119.0889 147° Southeast 500 575 41,000  Level Seattle Center
02:35PM 43.8575 -118.9836 147° Southeast 499 574 41,000  Level Seattle Center
02:36PM 43.7497 -118.8886 148° Southeast 501 577 41,000  Level Seattle Center
02:37PM 43.6472 -118.7958 147° Southeast 498 573 41,000  Level Salt Lake Center
02:38PM 43.5328 -118.6883 146° Southeast 500 575 41,000  Level Salt Lake Center
02:39PM 43.4208 -118.5767 144° Southeast 500 575 41,000  Level Salt Lake Center
02:40PM 43.3006 -118.4847 151° Southeast 498 573 41,000  Level Salt Lake Center
02:41PM 43.1747 -118.4053 155° Southeast 499 574 41,000  Level Salt Lake Center
02:42PM 43.0214 -118.3078 155° Southeast 505 581 41,000  Level Salt Lake Center
02:43PM 42.8950 -118.2250 154° Southeast 505 581 41,000  Level Salt Lake Center
02:44PM 42.7586 -118.1364 154° Southeast 515 593 41,000  Level Salt Lake Center
02:45PM 42.6464 -118.0344 146° Southeast 503 579 41,000  Level Salt Lake Center
02:46PM 42.5189 -117.9061 143° Southeast 510 587 41,000  Level Salt Lake Center
02:47PM 42.4111 -117.7983 144° Southeast 505 581 41,000  Level Salt Lake Center
02:48PM 42.2839 -117.6706 143° Southeast 509 586 41,000  Level Salt Lake Center
02:49PM 42.1667 -117.5553 144° Southeast 502 578 41,000  Level Salt Lake Center
02:50PM 42.0575 -117.4464 143° Southeast 506 582 41,000  Level Salt Lake Center
02:51PM 41.9486 -117.3358 143° Southeast 512 589 41,000  Level Salt Lake Center
02:52PM 41.8236 -117.2147 144° Southeast 498 573 41,000  Level Salt Lake Center
02:53PM 41.7172 -117.1100 144° Southeast 495 570 41,000  Level Salt Lake Center
02:54PM 41.5914 -116.9872 144° Southeast 498 573 41,000  Level Salt Lake Center
02:55PM 41.4833 -116.8831 144° Southeast 500 575 41,000  Level Salt Lake Center
02:56PM 41.3567 -116.7603 144° Southeast 502 578 41,000  Level Salt Lake Center
02:57PM 41.2475 -116.6553 144° Southeast 503 579 41,000  Level Salt Lake Center
02:58PM 41.1381 -116.5492 144° Southeast 504 580 41,000  Level Salt Lake Center
02:59PM 41.0081 -116.4258 144° Southeast 511 588 41,000  Level Salt Lake Center
03:00PM 40.8936 -116.3172 144° Southeast 522 601 41,000  Level Salt Lake Center
03:01PM 40.7617 -116.1906 144° Southeast 521 600 41,000  Level Salt Lake Center
03:02PM 40.6494 -116.0847 144° Southeast 518 596 41,000  Level Salt Lake Center
03:03PM 40.5161 -115.9619 145° Southeast 519 597 41,000  Level Salt Lake Center
03:04PM 40.4053 -115.8578 144° Southeast 513 590 41,000  Level Salt Lake Center
03:05PM 40.2953 -115.7550 145° Southeast 508 585 41,000  Level Salt Lake Center
03:06PM 40.1650 -115.6336 145° Southeast 509 586 41,000  Level Salt Lake Center
03:07PM 40.0547 -115.5319 145° Southeast 508 585 41,000  Level Salt Lake Center
03:09PM 39.9242 -115.4133 145° Southeast 509 586 41,000  Level Salt Lake Center
03:10PM 39.8133 -115.3119 145° Southeast 509 586 41,000  Level Salt Lake Center
03:11PM 39.6822 -115.1922 145° Southeast 513 590 41,000  Level Salt Lake Center
03:12PM 39.5681 -115.0897 145° Southeast 518 596 41,000  Level Salt Lake Center
03:13PM 39.4358 -114.9686 145° Southeast 521 600 41,000  Level Salt Lake Center
03:14PM 39.3172 -114.8678 147° Southeast 529 609 41,000  Level Salt Lake Center
03:15PM 39.2086 -114.7553 141° Southeast 522 601 41,000  Level Salt Lake Center
03:16PM 39.0964 -114.6300 139° Southeast 516 594 41,000  Level Salt Lake Center
03:17PM 38.9872 -114.5158 141° Southeast 509 586 41,000  Level Salt Lake Center
03:18PM 38.8578 -114.3767 140° Southeast 506 582 41,000  Level Salt Lake Center
03:19PM 38.7486 -114.2617 141° Southeast 508 585 41,000  Level Salt Lake Center
03:20PM 38.6386 -114.1492 141° Southeast 508 585 41,000  Level Salt Lake Center
03:21PM 38.5294 -114.0339 140° Southeast 509 586 41,000  Level Salt Lake Center
03:22PM 38.4192 -113.9186 141° Southeast 513 590 41,000  Level Salt Lake Center
03:23PM 38.3089 -113.8058 141° Southeast 511 588 41,000  Level Salt Lake Center
03:24PM 38.1769 -113.6686 141° Southeast 511 588 41,000 -240 Level Salt Lake Center
03:25PM 38.0667 -113.5578 142° Southeast 509 586 40,600 -720 Descending Salt Lake Center
03:26PM 37.9556 -113.4453 141° Southeast 511 588 39,600 -780 Descending Salt Lake Center
03:27PM 37.8436 -113.3419 144° Southeast 502 578 39,000 -300 Descending Salt Lake Center
03:28PM 37.7131 -113.2767 158° South 507 583 39,000  Level Salt Lake Center
03:29PM 37.5553 -113.2036 160° South 510 587 39,000 -120 Level Salt Lake Center
03:30PM 37.4281 -113.1400 158° South 504 580 38,800 -600 Descending Salt Lake Center
03:31PM 37.2978 -113.0797 160° South 504 580 37,800 -960 Descending Salt Lake Center
03:32PM 37.1644 -113.0183 160° South 510 587 36,900 -960 Descending Salt Lake Center
03:33PM 37.1103 -112.9925 159° South 514 592 36,500 -1,020 Descending Los Angeles Center
03:34PM 36.9892 -112.9036 150° Southeast 509 586 35,500 -1,020 Descending Los Angeles Center
03:35PM 36.8658 -112.8144 150° Southeast 512 589 34,400 -1,140 Descending Los Angeles Center
03:36PM 36.7422 -112.7267 150° Southeast 513 590 33,200 -1,500 Descending Los Angeles Center
03:37PM 36.5928 -112.6200 150° Southeast 516 594 31,400 -1,860 Descending Los Angeles Center
03:38PM 36.4689 -112.5297 150° Southeast 518 596 29,400 -2,160 Descending Los Angeles Center
03:39PM 36.3447 -112.4392 150° Southeast 518 596 26,900 -1,980 Descending Los Angeles Center
03:40PM 36.2275 -112.3539 150° Southeast 500 575 25,000 -1,620 Descending Los Angeles Center
03:41PM 36.0844 -112.2419 148° Southeast 482 555 23,300 -1,800 Descending Los Angeles Center
03:42PM 35.9839 -112.1428 141° Southeast 463 533 21,300 -1,800 Descending Los Angeles Center
03:43PM 35.8831 -112.0547 145° Southeast 448 516 19,300 -2,040 Descending Los Angeles Center
03:45PM 35.7117 -111.9472 153° Southeast 432 497 16,200 -1,980 Descending Los Angeles Center
03:46PM 35.6153 -111.8917 155° Southeast 378 435 14,900 -1,140 Descending Los Angeles Center
03:46PM 35.5806 -111.8056 116° Southeast 377 434 14,200 -1,200 Descending Albuquerque Center
03:48PM 35.6144 -111.6786 72° East 387 445 12,700 -1,500 Descending Albuquerque Center
03:49PM 35.6519 -111.5581 69° East 385 443 11,200 -1,080 Descending Albuquerque Center
03:50PM 35.6886 -111.4442 68° East 376 433 10,500 -360 Descending Albuquerque Center
03:51PM 35.7644 -111.3850 32° Northeast 324 373 10,500  Level Albuquerque Center
03:52PM 35.8111 -111.4506 311° West 306 352 10,500  Level Albuquerque Center
03:53PM 35.7461 -111.5153 219° Southwest 308 354 10,500  Level Albuquerque Center
03:54PM 35.6589 -111.5236 184° South 310 357 10,500  Level Albuquerque Center
03:55PM 35.5742 -111.5283 183° South 309 356 10,500  Level Albuquerque Center
03:56PM 35.4564 -111.5475 188° South 301 346 10,500  Level Albuquerque Center
03:57PM 35.3778 -111.5617 188° South 310 357 10,500  Level Albuquerque Center
03:58PM 35.2883 -111.5728 186° South 303 349 10,500  Level Albuquerque Center